createdAt,value
2018-02-22T00:00:37.704Z,102655.91
2018-02-22T00:05:36.006Z,102649.48
2018-02-22T00:08:01.783Z,102643.48
2018-02-22T00:10:27.548Z,102648.56
2018-02-22T00:12:53.297Z,102640.90
2018-02-22T00:15:19.060Z,102635.59
2018-02-22T00:17:44.823Z,102635.23
2018-02-22T00:20:10.591Z,102634.61
2018-02-22T00:22:36.363Z,102635.97
2018-02-22T00:25:02.148Z,102629.31
2018-02-22T00:27:28.083Z,102631.52
2018-02-22T00:29:53.847Z,102627.39
2018-02-22T00:32:19.599Z,102619.32
2018-02-22T00:34:45.362Z,102617.80
2018-02-22T00:37:11.120Z,102624.67
2018-02-22T00:39:36.907Z,102620.16
2018-02-22T00:42:02.658Z,102618.67
2018-02-22T00:44:28.431Z,102626.13
2018-02-22T00:46:54.246Z,102618.03
2018-02-22T00:49:20.008Z,102621.08
2018-02-22T00:51:45.772Z,102615.30
2018-02-22T00:54:11.577Z,102608.63
2018-02-22T00:56:37.350Z,102616.58
2018-02-22T00:59:03.107Z,102611.73
2018-02-22T01:01:28.874Z,102611.00
2018-02-22T01:03:54.640Z,102611.31
2018-02-22T01:06:20.403Z,102599.13
2018-02-22T01:08:46.155Z,102597.32
2018-02-22T01:11:11.915Z,102590.21
2018-02-22T01:13:37.668Z,102596.54
2018-02-22T01:16:03.439Z,102596.66
2018-02-22T01:18:29.195Z,102598.63
2018-02-22T01:20:55.011Z,102599.26
2018-02-22T01:23:20.767Z,102603.31
2018-02-22T01:25:46.548Z,102598.77
2018-02-22T01:28:12.307Z,102598.89
2018-02-22T01:30:38.148Z,102595.69
2018-02-22T01:33:03.888Z,102592.77
2018-02-22T01:35:29.656Z,102597.31
2018-02-22T01:37:55.423Z,102600.20
2018-02-22T01:40:21.191Z,102600.06
2018-02-22T01:42:46.961Z,102597.19
2018-02-22T01:45:12.729Z,102596.25
2018-02-22T01:47:38.497Z,102604.19
2018-02-22T01:50:04.268Z,102597.53
2018-02-22T01:52:30.033Z,102597.59
2018-02-22T01:54:55.842Z,102593.20
2018-02-22T01:57:21.656Z,102590.44
2018-02-22T01:59:47.424Z,102585.53
2018-02-22T02:02:13.191Z,102588.65
2018-02-22T02:04:38.934Z,102584.25
2018-02-22T02:07:04.695Z,102580.73
2018-02-22T02:09:30.456Z,102576.88
2018-02-22T02:11:56.218Z,102585.59
2018-02-22T02:14:21.980Z,102576.33
2018-02-22T02:16:47.756Z,102580.09
2018-02-22T02:19:13.511Z,102568.58
2018-02-22T02:21:39.332Z,102572.91
2018-02-22T02:24:05.084Z,102573.73
2018-02-22T02:26:30.845Z,102568.55
2018-02-22T02:28:56.618Z,102575.86
2018-02-22T02:31:22.375Z,102579.13
2018-02-22T02:33:48.130Z,102580.06
2018-02-22T02:36:13.900Z,102578.30
2018-02-22T02:38:39.671Z,102581.41
2018-02-22T02:41:05.451Z,102578.08
2018-02-22T02:43:31.248Z,102576.95
2018-02-22T02:45:56.995Z,102584.16
2018-02-22T02:48:22.765Z,102572.84
2018-02-22T02:50:48.533Z,102577.73
2018-02-22T02:53:14.307Z,102580.11
2018-02-22T02:55:40.052Z,102572.77
2018-02-22T02:58:05.825Z,102570.91
2018-02-22T03:00:31.597Z,102567.84
2018-02-22T03:02:57.361Z,102566.47
2018-02-22T03:05:23.131Z,102567.19
2018-02-22T03:07:48.912Z,102567.90
2018-02-22T03:10:14.685Z,102561.72
2018-02-22T03:12:40.434Z,102561.87
2018-02-22T03:15:06.214Z,102552.82
2018-02-22T03:17:31.975Z,102554.33
2018-02-22T03:19:57.989Z,102555.42
2018-02-22T03:22:23.731Z,102552.34
2018-02-22T03:24:49.492Z,102551.63
2018-02-22T03:27:15.256Z,102560.19
2018-02-22T03:29:41.030Z,102557.73
2018-02-22T03:32:06.791Z,102565.48
2018-02-22T03:34:32.572Z,102573.13
2018-02-22T03:36:58.338Z,102566.17
2018-02-22T03:39:24.112Z,102572.30
2018-02-22T03:41:49.868Z,102575.35
2018-02-22T03:44:15.659Z,102572.56
2018-02-22T03:46:41.418Z,102574.88
2018-02-22T03:49:07.194Z,102573.53
2018-02-22T03:51:32.942Z,102570.86
2018-02-22T03:53:58.703Z,102571.67
2018-02-22T03:56:24.471Z,102575.39
2018-02-22T03:58:50.263Z,102574.50
2018-02-22T04:01:16.034Z,102579.80
2018-02-22T04:03:41.795Z,102578.11
2018-02-22T04:06:07.573Z,102565.64
2018-02-22T04:08:33.337Z,102568.23
2018-02-22T04:11:00.093Z,102573.69
2018-02-22T04:13:25.864Z,102569.31
2018-02-22T04:15:51.648Z,102565.94
2018-02-22T04:18:17.456Z,102558.53
2018-02-22T04:20:43.200Z,102556.81
2018-02-22T04:23:08.961Z,102561.86
2018-02-22T04:25:34.731Z,102561.09
2018-02-22T04:28:00.499Z,102560.38
2018-02-22T04:30:26.273Z,102551.36
2018-02-22T04:32:52.039Z,102555.11
2018-02-22T04:35:17.820Z,102557.48
2018-02-22T04:37:43.579Z,102561.03
2018-02-22T04:40:09.351Z,102563.27
2018-02-22T04:42:35.114Z,102564.42
2018-02-22T04:45:00.888Z,102560.12
2018-02-22T04:47:26.660Z,102554.73
2018-02-22T04:49:52.418Z,102543.88
2018-02-22T04:52:18.208Z,102545.42
2018-02-22T04:54:43.954Z,102542.23
2018-02-22T04:57:09.727Z,102543.52
2018-02-22T04:59:36.293Z,102540.87
2018-02-22T05:02:02.068Z,102540.52
2018-02-22T05:04:27.823Z,102536.56
2018-02-22T05:06:53.592Z,102538.40
2018-02-22T05:09:19.343Z,102539.84
2018-02-22T05:11:45.106Z,102536.06
2018-02-22T05:14:10.880Z,102539.12
2018-02-22T05:16:36.643Z,102540.56
2018-02-22T05:19:02.398Z,102554.66
2018-02-22T05:21:28.151Z,102562.86
2018-02-22T05:23:53.908Z,102557.96
2018-02-22T05:26:19.676Z,102560.69
2018-02-22T05:28:45.418Z,102563.05
2018-02-22T05:31:11.179Z,102565.21
2018-02-22T05:33:36.935Z,102559.27
2018-02-22T05:36:02.682Z,102562.98
2018-02-22T05:38:28.450Z,102564.30
2018-02-22T05:40:54.194Z,102561.44
2018-02-22T05:43:19.968Z,102557.73
2018-02-22T05:45:45.712Z,102559.94
2018-02-22T05:48:11.472Z,102557.73
2018-02-22T05:50:37.216Z,102556.42
2018-02-22T05:53:02.972Z,102558.09
2018-02-22T05:55:28.699Z,102554.39
2018-02-22T05:57:54.471Z,102548.93
2018-02-22T06:00:20.227Z,102550.31
2018-02-22T06:02:45.975Z,102540.50
2018-02-22T06:05:11.728Z,102546.27
2018-02-22T06:07:37.487Z,102557.20
2018-02-22T06:10:03.248Z,102557.98
2018-02-22T06:12:29.011Z,102559.28
2018-02-22T06:14:54.768Z,102558.45
2018-02-22T06:17:20.523Z,102562.87
2018-02-22T06:19:46.263Z,102559.36
2018-02-22T06:22:12.012Z,102561.63
2018-02-22T06:24:37.751Z,102556.03
2018-02-22T06:27:03.491Z,102559.48
2018-02-22T06:29:29.243Z,102558.63
2018-02-22T06:31:55.006Z,102558.69
2018-02-22T06:34:20.767Z,102566.52
2018-02-22T06:36:46.524Z,102563.08
2018-02-22T06:39:12.299Z,102568.27
2018-02-22T06:41:38.044Z,102567.81
2018-02-22T06:44:03.798Z,102567.05
2018-02-22T06:46:29.544Z,102574.91
2018-02-22T06:48:55.310Z,102573.73
2018-02-22T06:51:21.064Z,102563.83
2018-02-22T06:53:46.815Z,102574.31
2018-02-22T06:56:12.556Z,102572.95
2018-02-22T06:58:38.319Z,102566.18
2018-02-22T07:01:04.090Z,102567.75
2018-02-22T07:03:29.860Z,102562.92
2018-02-22T07:05:55.640Z,102560.98
2018-02-22T07:08:21.363Z,102573.28
2018-02-22T07:10:47.139Z,102568.14
2018-02-22T07:13:12.894Z,102567.27
2018-02-22T07:15:38.655Z,102567.14
2018-02-22T07:18:04.430Z,102572.23
2018-02-22T07:20:30.197Z,102574.12
2018-02-22T07:22:55.968Z,102573.52
2018-02-22T07:25:21.739Z,102563.95
2018-02-22T07:27:47.719Z,102564.55
2018-02-22T07:30:13.496Z,102560.71
2018-02-22T07:32:39.263Z,102555.56
2018-02-22T07:35:05.054Z,102557.75
2018-02-22T07:37:30.803Z,102553.09
2018-02-22T07:39:56.568Z,102548.45
2018-02-22T07:42:22.324Z,102552.11
2018-02-22T07:44:48.084Z,102547.48
2018-02-22T07:47:13.835Z,102556.85
2018-02-22T07:49:39.599Z,102547.71
2018-02-22T07:52:05.353Z,102547.39
2018-02-22T07:54:31.124Z,102547.97
2018-02-22T07:56:56.881Z,102549.93
2018-02-22T07:59:22.646Z,102550.58
2018-02-22T08:01:48.403Z,102550.50
2018-02-22T08:04:14.146Z,102554.69
2018-02-22T08:06:39.894Z,102559.49
2018-02-22T08:09:05.652Z,102559.09
2018-02-22T08:11:31.429Z,102558.23
2018-02-22T08:13:57.190Z,102562.91
2018-02-22T08:16:22.943Z,102563.29
2018-02-22T08:18:48.693Z,102559.75
2018-02-22T08:21:14.459Z,102557.09
2018-02-22T08:23:40.219Z,102564.79
2018-02-22T08:26:05.993Z,102565.18
2018-02-22T08:28:31.740Z,102563.81
2018-02-22T08:30:57.514Z,102567.55
2018-02-22T08:33:23.272Z,102569.98
2018-02-22T08:35:49.051Z,102575.03
2018-02-22T08:38:14.875Z,102574.38
2018-02-22T08:40:40.639Z,102574.97
2018-02-22T08:43:06.399Z,102571.59
2018-02-22T08:45:32.159Z,102575.18
2018-02-22T08:47:57.939Z,102576.36
2018-02-22T08:50:23.676Z,102578.80
2018-02-22T08:52:49.428Z,102577.10
2018-02-22T08:55:15.181Z,102578.84
2018-02-22T08:57:40.951Z,102585.27
2018-02-22T09:00:06.711Z,102589.12
2018-02-22T09:02:32.478Z,102585.22
2018-02-22T09:04:58.260Z,102583.70
2018-02-22T09:07:24.028Z,102580.06
2018-02-22T09:09:49.774Z,102583.44
2018-02-22T09:12:15.527Z,102577.91
2018-02-22T09:14:41.272Z,102582.84
2018-02-22T09:17:07.011Z,102583.93
2018-02-22T09:19:32.748Z,102585.19
2018-02-22T09:21:58.488Z,102583.72
2018-02-22T09:24:24.239Z,102583.66
2018-02-22T09:26:50.007Z,102580.33
2018-02-22T09:29:15.796Z,102585.72
2018-02-22T09:31:41.544Z,102584.98
2018-02-22T09:34:07.307Z,102580.73
2018-02-22T09:36:33.123Z,102580.34
2018-02-22T09:38:58.822Z,102578.19
2018-02-22T09:41:24.569Z,102578.75
2018-02-22T09:43:50.333Z,102580.91
2018-02-22T09:46:16.102Z,102579.08
2018-02-22T09:48:41.880Z,102579.27
2018-02-22T09:51:07.640Z,102566.79
2018-02-22T09:53:33.410Z,102574.78
2018-02-22T09:55:59.163Z,102585.22
2018-02-22T09:58:24.976Z,102574.23
2018-02-22T10:00:50.782Z,102574.19
2018-02-22T10:03:16.511Z,102576.89
2018-02-22T10:05:42.269Z,102582.22
2018-02-22T10:08:08.031Z,102574.80
2018-02-22T10:10:33.796Z,102581.49
2018-02-22T10:12:59.559Z,102580.47
2018-02-22T10:15:25.316Z,102583.37
2018-02-22T10:17:51.068Z,102586.44
2018-02-22T10:20:16.820Z,102578.94
2018-02-22T10:22:42.576Z,102582.81
2018-02-22T10:25:08.346Z,102585.70
2018-02-22T10:27:34.100Z,102585.07
2018-02-22T10:29:59.855Z,102584.73
2018-02-22T10:32:25.598Z,102582.75
2018-02-22T10:34:51.358Z,102580.77
2018-02-22T10:37:17.108Z,102580.25
2018-02-22T10:39:43.127Z,102578.84
2018-02-22T10:42:08.886Z,102579.27
2018-02-22T10:44:34.623Z,102575.36
2018-02-22T10:47:00.402Z,102580.29
2018-02-22T10:49:26.158Z,102578.27
2018-02-22T10:51:51.927Z,102578.31
2018-02-22T10:54:17.682Z,102575.83
2018-02-22T10:56:43.441Z,102580.02
2018-02-22T10:59:09.215Z,102582.34
2018-02-22T11:01:41.164Z,102581.06
2018-02-22T11:04:06.905Z,102582.47
2018-02-22T11:06:32.699Z,102583.81
2018-02-22T11:08:58.462Z,102581.95
2018-02-22T11:11:24.238Z,102578.89
2018-02-22T11:13:49.996Z,102579.28
2018-02-22T11:16:15.768Z,102577.25
2018-02-22T11:18:41.563Z,102575.78
2018-02-22T11:21:07.350Z,102574.29
2018-02-22T11:23:33.123Z,102572.97
2018-02-22T11:25:58.879Z,102577.19
2018-02-22T11:28:24.645Z,102572.46
2018-02-22T11:30:50.429Z,102574.14
2018-02-22T11:33:16.203Z,102571.75
2018-02-22T11:35:41.964Z,102568.11
2018-02-22T11:38:07.750Z,102568.57
2018-02-22T11:40:33.511Z,102572.20
2018-02-22T11:42:59.301Z,102568.19
2018-02-22T11:45:25.060Z,102567.48
2018-02-22T11:47:50.836Z,102568.45
2018-02-22T11:50:16.603Z,102572.50
2018-02-22T11:52:42.378Z,102575.63
2018-02-22T11:55:08.143Z,102579.37
2018-02-22T11:57:33.923Z,102574.19
2018-02-22T11:59:59.708Z,102569.07
2018-02-22T12:02:25.483Z,102575.77
2018-02-22T12:04:51.244Z,102565.14
2018-02-22T12:07:17.024Z,102566.91
2018-02-22T12:09:42.780Z,102573.83
2018-02-22T12:12:08.556Z,102574.70
2018-02-22T12:14:34.322Z,102567.72
2018-02-22T12:17:00.092Z,102569.53
2018-02-22T12:19:25.875Z,102569.59
2018-02-22T12:21:51.637Z,102574.43
2018-02-22T12:24:17.419Z,102572.08
2018-02-22T12:26:43.171Z,102570.72
2018-02-22T12:29:08.951Z,102568.41
2018-02-22T12:31:34.703Z,102567.89
2018-02-22T12:34:00.470Z,102560.68
2018-02-22T12:36:26.226Z,102562.23
2018-02-22T12:38:51.999Z,102559.90
2018-02-22T12:41:17.768Z,102562.05
2018-02-22T12:43:43.539Z,102556.72
2018-02-22T12:46:09.303Z,102556.56
2018-02-22T12:48:35.070Z,102562.91
2018-02-22T12:51:00.839Z,102555.53
2018-02-22T12:53:26.616Z,102557.11
2018-02-22T12:55:52.386Z,102556.39
2018-02-22T12:58:18.144Z,102559.72
2018-02-22T13:00:44.071Z,102555.17
2018-02-22T13:03:09.845Z,102552.09
2018-02-22T13:05:35.621Z,102555.87
2018-02-22T13:08:01.380Z,102553.67
2018-02-22T13:10:27.166Z,102546.97
2018-02-22T13:12:52.936Z,102547.64
2018-02-22T13:15:18.744Z,102545.39
2018-02-22T13:17:44.510Z,102532.28
2018-02-22T13:20:10.284Z,102543.00
2018-02-22T13:22:36.038Z,102532.48
2018-02-22T13:25:01.802Z,102532.89
2018-02-22T13:27:27.562Z,102529.16
2018-02-22T13:29:53.335Z,102526.72
2018-02-22T13:32:19.094Z,102513.83
2018-02-22T13:34:44.871Z,102517.27
2018-02-22T13:37:23.218Z,102514.11
2018-02-22T13:39:48.987Z,102516.06
2018-02-22T13:42:14.797Z,102520.91
2018-02-22T13:44:52.957Z,102517.17
2018-02-22T13:47:18.706Z,102513.23
2018-02-22T13:52:43.447Z,102515.60
2018-02-22T13:55:09.248Z,102519.72
2018-02-22T13:57:35.003Z,102515.55
2018-02-22T14:00:00.764Z,102515.94
2018-02-22T14:02:26.546Z,102514.54
2018-02-22T14:04:52.311Z,102514.55
2018-02-22T14:07:18.085Z,102518.25
2018-02-22T14:09:43.843Z,102515.20
2018-02-22T14:12:09.621Z,102521.06
2018-02-22T14:14:35.383Z,102515.95
2018-02-22T14:17:01.152Z,102514.20
2018-02-22T14:19:26.925Z,102513.63
2018-02-22T14:21:52.703Z,102505.50
2018-02-22T14:24:18.466Z,102503.30
2018-02-22T14:26:44.236Z,102503.80
2018-02-22T14:29:10.008Z,102504.09
2018-02-22T14:31:35.796Z,102506.66
2018-02-22T14:34:01.563Z,102500.98
2018-02-22T14:36:27.326Z,102495.63
2018-02-22T14:38:53.134Z,102491.64
2018-02-22T14:41:18.859Z,102490.40
2018-02-22T14:43:44.636Z,102486.33
2018-02-22T14:46:10.420Z,102482.09
2018-02-22T14:48:36.183Z,102479.97
2018-02-22T14:51:01.927Z,102475.84
2018-02-22T14:53:27.692Z,102468.78
2018-02-22T14:55:53.480Z,102463.91
2018-02-22T14:58:19.253Z,102467.53
2018-02-22T15:00:51.183Z,102469.44
2018-02-22T15:03:16.947Z,102465.51
2018-02-22T15:05:42.726Z,102473.41
2018-02-22T15:08:08.499Z,102482.25
2018-02-22T15:10:34.256Z,102484.19
2018-02-22T15:13:00.031Z,102488.11
2018-02-22T15:15:25.790Z,102488.78
2018-02-22T15:17:51.551Z,102495.06
2018-02-22T15:20:17.304Z,102484.94
2018-02-22T15:22:43.076Z,102486.28
2018-02-22T15:25:08.851Z,102481.23
2018-02-22T15:27:34.612Z,102490.67
2018-02-22T15:30:00.377Z,102488.97
2018-02-22T15:32:26.147Z,102491.95
2018-02-22T15:34:51.903Z,102497.78
2018-02-22T15:37:17.659Z,102492.24
2018-02-22T15:39:43.444Z,102490.59
2018-02-22T15:42:09.210Z,102498.93
2018-02-22T15:44:34.991Z,102497.67
2018-02-22T15:47:00.748Z,102497.67
2018-02-22T15:49:26.528Z,102493.59
2018-02-22T15:51:52.295Z,102499.86
2018-02-22T15:54:18.088Z,102492.23
2018-02-22T15:56:43.852Z,102496.81
2018-02-22T15:59:09.628Z,102494.98
2018-02-22T16:01:35.366Z,102501.40
2018-02-22T16:04:01.164Z,102497.66
2018-02-22T16:06:26.903Z,102491.33
2018-02-22T16:08:52.680Z,102499.28
2018-02-22T16:11:18.447Z,102493.95
2018-02-22T16:13:44.235Z,102495.03
2018-02-22T16:16:09.991Z,102494.23
2018-02-22T16:18:35.764Z,102491.98
2018-02-22T16:21:01.542Z,102491.13
2018-02-22T16:23:27.336Z,102489.27
2018-02-22T16:25:53.091Z,102490.05
2018-02-22T16:28:18.847Z,102484.52
2018-02-22T16:30:44.675Z,102490.75
2018-02-22T16:33:10.460Z,102490.75
2018-02-22T16:35:36.245Z,102496.47
2018-02-22T16:38:02.003Z,102495.32
2018-02-22T16:40:27.841Z,102494.13
2018-02-22T16:42:53.551Z,102492.37
2018-02-22T16:45:19.316Z,102495.01
2018-02-22T16:47:45.076Z,102492.15
2018-02-22T16:50:10.864Z,102497.30
2018-02-22T16:52:36.623Z,102495.80
2018-02-22T16:55:02.399Z,102496.17
2018-02-22T16:57:28.156Z,102494.03
2018-02-22T16:59:53.934Z,102495.73
2018-02-22T17:02:19.691Z,102493.78
2018-02-22T17:04:45.468Z,102511.09
2018-02-22T17:07:11.238Z,102503.30
2018-02-22T17:09:37.027Z,102509.16
2018-02-22T17:12:02.777Z,102508.47
2018-02-22T17:14:28.550Z,102505.61
2018-02-22T17:16:54.332Z,102512.12
2018-02-22T17:19:20.096Z,102515.77
2018-02-22T17:21:45.876Z,102517.00
2018-02-22T17:24:11.640Z,102513.09
2018-02-22T17:26:43.486Z,102518.45
2018-02-22T17:29:15.580Z,102516.55
2018-02-22T17:31:47.463Z,102520.77
2018-02-22T17:34:13.292Z,102518.31
2018-02-22T17:36:44.995Z,102523.30
2018-02-22T17:39:14.740Z,102525.98
2018-02-22T17:41:41.381Z,102523.45
2018-02-22T17:44:07.167Z,102527.60
2018-02-22T17:46:32.943Z,102525.66
2018-02-22T17:48:58.703Z,102523.30
2018-02-22T17:51:24.477Z,102521.23
2018-02-22T17:53:51.273Z,102520.31
2018-02-22T17:56:17.119Z,102522.73
2018-02-22T17:58:42.915Z,102522.34
2018-02-22T18:01:09.055Z,102527.98
2018-02-22T18:03:34.860Z,102533.30
2018-02-22T18:06:01.419Z,102533.24
2018-02-22T18:08:27.202Z,102531.34
2018-02-22T18:10:52.989Z,102533.95
2018-02-22T18:13:18.751Z,102533.94
2018-02-22T18:15:44.544Z,102530.12
2018-02-22T18:18:13.155Z,102541.05
2018-02-22T18:20:38.984Z,102536.16
2018-02-22T18:23:04.763Z,102533.64
2018-02-22T18:25:30.555Z,102534.87
2018-02-22T18:27:56.331Z,102540.02
2018-02-22T18:30:22.178Z,102532.42
2018-02-22T18:32:47.963Z,102527.52
2018-02-22T18:35:13.829Z,102530.86
2018-02-22T18:37:45.763Z,102539.31
2018-02-22T18:40:17.592Z,102534.75
2018-02-22T18:42:49.299Z,102542.83
2018-02-22T18:45:15.196Z,102538.14
2018-02-22T18:47:41.082Z,102531.50
2018-02-22T18:50:06.843Z,102533.53
2018-02-22T18:52:32.608Z,102537.15
2018-02-22T18:54:58.372Z,102542.36
2018-02-22T18:57:24.164Z,102534.28
2018-02-22T18:59:49.932Z,102532.78
2018-02-22T19:02:15.706Z,102527.73
2018-02-22T19:04:41.461Z,102537.08
2018-02-22T19:07:07.244Z,102533.42
2018-02-22T19:09:33.005Z,102536.34
2018-02-22T19:11:58.796Z,102537.25
2018-02-22T19:14:24.552Z,102534.05
2018-02-22T19:16:50.314Z,102530.45
2018-02-22T19:19:16.095Z,102527.58
2018-02-22T19:21:41.839Z,102534.80
2018-02-22T19:24:07.616Z,102530.85
2018-02-22T19:26:33.384Z,102525.37
2018-02-22T19:28:59.154Z,102531.00
2018-02-22T19:31:24.931Z,102527.70
2018-02-22T19:33:50.699Z,102521.00
2018-02-22T19:36:16.706Z,102532.91
2018-02-22T19:38:42.583Z,102529.41
2018-02-22T19:41:08.560Z,102525.42
2018-02-22T19:43:34.528Z,102526.11
2018-02-22T19:46:00.372Z,102526.62
2018-02-22T19:48:26.473Z,102525.09
2018-02-22T19:50:52.419Z,102528.48
2018-02-22T19:53:18.308Z,102522.02
2018-02-22T19:55:44.072Z,102513.06
2018-02-22T19:58:09.846Z,102519.89
2018-02-22T20:00:35.642Z,102514.98
2018-02-22T20:03:01.745Z,102518.05
2018-02-22T20:05:27.532Z,102523.44
2018-02-22T20:07:53.301Z,102524.73
2018-02-22T20:10:19.080Z,102525.97
2018-02-22T20:12:44.845Z,102517.81
2018-02-22T20:15:10.619Z,102523.55
2018-02-22T20:17:36.379Z,102521.02
2018-02-22T20:20:02.143Z,102527.30
2018-02-22T20:22:27.916Z,102530.08
2018-02-22T20:24:53.793Z,102526.38
2018-02-22T20:27:19.547Z,102532.93
2018-02-22T20:29:45.480Z,102533.83
2018-02-22T20:32:11.282Z,102521.50
2018-02-22T20:34:37.048Z,102527.84
2018-02-22T20:37:03.202Z,102531.27
2018-02-22T20:39:29.251Z,102529.63
2018-02-22T20:41:55.298Z,102523.12
2018-02-22T20:44:21.602Z,102533.41
2018-02-22T20:46:47.617Z,102532.08
2018-02-22T20:49:14.147Z,102530.80
2018-02-22T20:51:41.098Z,102529.55
2018-02-22T20:54:07.242Z,102532.86
2018-02-22T20:56:33.211Z,102538.52
2018-02-22T20:58:58.992Z,102537.05
2018-02-22T21:01:24.801Z,102536.81
2018-02-22T21:03:50.571Z,102540.58
2018-02-22T21:06:16.344Z,102535.38
2018-02-22T21:08:42.103Z,102543.70
2018-02-22T21:11:07.880Z,102537.44
2018-02-22T21:13:33.630Z,102538.05
2018-02-22T21:16:01.002Z,102538.63
2018-02-22T21:18:26.978Z,102535.09
2018-02-22T21:20:52.769Z,102535.83
2018-02-22T21:23:18.536Z,102540.41
2018-02-22T21:25:44.309Z,102538.77
2018-02-22T21:28:10.068Z,102544.50
2018-02-22T21:30:36.210Z,102541.17
2018-02-22T21:33:02.000Z,102544.47
2018-02-22T21:35:27.927Z,102541.02
2018-02-22T21:37:53.683Z,102540.38
2018-02-22T21:40:19.525Z,102539.48
2018-02-22T21:42:45.329Z,102543.53
2018-02-22T21:45:11.072Z,102538.48
2018-02-22T21:47:36.822Z,102545.70
2018-02-22T21:50:02.587Z,102542.45
2018-02-22T21:52:28.364Z,102543.96
2018-02-22T21:54:54.263Z,102543.27
2018-02-22T21:57:20.031Z,102541.11
2018-02-22T21:59:45.803Z,102544.44
2018-02-22T22:02:11.579Z,102541.91
2018-02-22T22:04:37.331Z,102548.72
2018-02-22T22:07:03.108Z,102547.84
2018-02-22T22:09:29.852Z,102539.77
2018-02-22T22:11:55.615Z,102551.66
2018-02-22T22:14:21.418Z,102551.72
2018-02-22T22:16:47.230Z,102550.89
2018-02-22T22:19:12.990Z,102547.12
2018-02-22T22:21:38.759Z,102546.33
2018-02-22T22:24:04.512Z,102549.02
2018-02-22T22:26:30.262Z,102551.73
2018-02-22T22:28:56.040Z,102541.02
2018-02-22T22:31:21.787Z,102541.54
2018-02-22T22:33:47.560Z,102545.09
2018-02-22T22:36:13.323Z,102546.02
2018-02-22T22:38:39.090Z,102543.88
2018-02-22T22:41:04.869Z,102540.88
2018-02-22T22:43:30.657Z,102546.09
2018-02-22T22:45:56.503Z,102537.90
2018-02-22T22:48:22.298Z,102536.73
2018-02-22T22:50:48.060Z,102545.05
2018-02-22T22:53:13.841Z,102542.81
2018-02-22T22:55:39.600Z,102545.96
2018-02-22T22:58:05.411Z,102535.33
2018-02-22T23:00:31.303Z,102536.44
2018-02-22T23:02:57.107Z,102543.75
2018-02-22T23:05:22.869Z,102544.27
2018-02-22T23:07:48.622Z,102541.77
2018-02-22T23:10:14.387Z,102543.75
2018-02-22T23:12:40.157Z,102540.41
2018-02-22T23:15:05.938Z,102535.62
2018-02-22T23:17:31.719Z,102540.68
2018-02-22T23:19:57.531Z,102539.84
2018-02-22T23:22:23.440Z,102545.30
2018-02-22T23:24:49.192Z,102551.61
2018-02-22T23:27:14.965Z,102544.59
2018-02-22T23:29:40.735Z,102549.72
2018-02-22T23:32:06.500Z,102546.75
2018-02-22T23:34:32.311Z,102550.70
2018-02-22T23:36:58.098Z,102555.63
2018-02-22T23:39:23.932Z,102550.38
2018-02-22T23:41:55.987Z,102551.61
2018-02-22T23:44:21.755Z,102551.34
2018-02-22T23:46:47.528Z,102547.97
2018-02-22T23:49:13.304Z,102549.39
2018-02-22T23:51:39.073Z,102550.23
2018-02-22T23:54:04.862Z,102545.90
2018-02-22T23:56:30.725Z,102551.60
2018-02-22T23:58:56.459Z,102548.03
